sensor_id;sensor_type;location;lat;lon;timestamp;temperature;humidity
32173;DHT22;18679;45.190;5.722;2022-08-26T00:01:01;28.30;39.70
32173;DHT22;18679;45.190;5.722;2022-08-26T00:04:02;28.30;39.80
32173;DHT22;18679;45.190;5.722;2022-08-26T00:07:04;28.30;39.80
32173;DHT22;18679;45.190;5.722;2022-08-26T00:10:05;28.30;39.70
32173;DHT22;18679;45.190;5.722;2022-08-26T00:13:08;28.40;39.70
32173;DHT22;18679;45.190;5.722;2022-08-26T00:16:10;28.40;39.50
32173;DHT22;18679;45.190;5.722;2022-08-26T00:19:12;28.50;38.80
32173;DHT22;18679;45.190;5.722;2022-08-26T00:22:13;28.60;38.40
32173;DHT22;18679;45.190;5.722;2022-08-26T00:25:15;28.70;37.90
32173;DHT22;18679;45.190;5.722;2022-08-26T00:28:16;28.80;37.50
32173;DHT22;18679;45.190;5.722;2022-08-26T00:31:18;28.90;37.20
32173;DHT22;18679;45.190;5.722;2022-08-26T00:34:19;29.10;36.90
32173;DHT22;18679;45.190;5.722;2022-08-26T00:37:20;29.10;36.60
32173;DHT22;18679;45.190;5.722;2022-08-26T00:40:28;29.20;36.50
32173;DHT22;18679;45.190;5.722;2022-08-26T00:43:33;29.20;36.40
32173;DHT22;18679;45.190;5.722;2022-08-26T00:46:38;29.20;36.30
32173;DHT22;18679;45.190;5.722;2022-08-26T00:49:42;29.20;36.40
32173;DHT22;18679;45.190;5.722;2022-08-26T00:52:45;29.30;36.60
32173;DHT22;18679;45.190;5.722;2022-08-26T00:55:59;29.20;36.60
32173;DHT22;18679;45.190;5.722;2022-08-26T00:59:07;29.20;36.80
32173;DHT22;18679;45.190;5.722;2022-08-26T01:02:09;29.10;36.90
32173;DHT22;18679;45.190;5.722;2022-08-26T01:05:10;29.10;37.60
32173;DHT22;18679;45.190;5.722;2022-08-26T01:08:11;29.00;38.20
32173;DHT22;18679;45.190;5.722;2022-08-26T01:11:13;28.70;38.50
32173;DHT22;18679;45.190;5.722;2022-08-26T01:14:16;28.60;38.90
32173;DHT22;18679;45.190;5.722;2022-08-26T01:17:19;28.50;39.00
32173;DHT22;18679;45.190;5.722;2022-08-26T01:23:51;28.50;39.10
32173;DHT22;18679;45.190;5.722;2022-08-26T01:27:00;28.50;38.90
32173;DHT22;18679;45.190;5.722;2022-08-26T01:30:04;28.60;39.00
32173;DHT22;18679;45.190;5.722;2022-08-26T01:33:10;28.60;39.10
32173;DHT22;18679;45.190;5.722;2022-08-26T01:36:13;28.60;39.20
32173;DHT22;18679;45.190;5.722;2022-08-26T01:39:15;28.70;39.20
32173;DHT22;18679;45.190;5.722;2022-08-26T01:42:18;28.70;39.20
32173;DHT22;18679;45.190;5.722;2022-08-26T01:45:24;28.80;39.20
32173;DHT22;18679;45.190;5.722;2022-08-26T01:48:30;28.80;39.10
32173;DHT22;18679;45.190;5.722;2022-08-26T01:51:33;28.90;39.10
32173;DHT22;18679;45.190;5.722;2022-08-26T01:54:36;28.90;39.00
32173;DHT22;18679;45.190;5.722;2022-08-26T01:57:38;28.90;38.90
32173;DHT22;18679;45.190;5.722;2022-08-26T02:00:40;29.00;38.70
32173;DHT22;18679;45.190;5.722;2022-08-26T02:03:54;29.00;38.70
32173;DHT22;18679;45.190;5.722;2022-08-26T02:07:03;28.90;38.70
32173;DHT22;18679;45.190;5.722;2022-08-26T02:10:06;29.00;38.70
32173;DHT22;18679;45.190;5.722;2022-08-26T02:13:09;29.00;38.60
32173;DHT22;18679;45.190;5.722;2022-08-26T02:16:11;29.00;38.80
32173;DHT22;18679;45.190;5.722;2022-08-26T02:19:19;28.90;38.80
32173;DHT22;18679;45.190;5.722;2022-08-26T02:22:22;28.90;38.90
32173;DHT22;18679;45.190;5.722;2022-08-26T02:25:46;28.90;38.90
32173;DHT22;18679;45.190;5.722;2022-08-26T02:29:00;28.90;39.10
32173;DHT22;18679;45.190;5.722;2022-08-26T02:32:07;28.90;39.10
32173;DHT22;18679;45.190;5.722;2022-08-26T02:35:10;28.80;39.20
32173;DHT22;18679;45.190;5.722;2022-08-26T02:38:12;28.70;39.30
32173;DHT22;18679;45.190;5.722;2022-08-26T02:41:13;28.70;39.40
32173;DHT22;18679;45.190;5.722;2022-08-26T02:44:14;28.70;39.60
32173;DHT22;18679;45.190;5.722;2022-08-26T02:47:16;28.70;39.90
32173;DHT22;18679;45.190;5.722;2022-08-26T02:50:17;28.70;40.10
32173;DHT22;18679;45.190;5.722;2022-08-26T02:53:18;28.60;40.30
32173;DHT22;18679;45.190;5.722;2022-08-26T02:56:20;28.60;40.40
32173;DHT22;18679;45.190;5.722;2022-08-26T02:59:21;28.60;40.60
32173;DHT22;18679;45.190;5.722;2022-08-26T03:02:22;28.50;40.70
32173;DHT22;18679;45.190;5.722;2022-08-26T03:05:23;28.50;40.90
32173;DHT22;18679;45.190;5.722;2022-08-26T03:08:25;28.50;41.20
32173;DHT22;18679;45.190;5.722;2022-08-26T03:11:26;28.50;41.40
32173;DHT22;18679;45.190;5.722;2022-08-26T03:14:27;28.50;41.50
32173;DHT22;18679;45.190;5.722;2022-08-26T03:17:29;28.50;41.70
32173;DHT22;18679;45.190;5.722;2022-08-26T03:20:31;28.40;41.80
32173;DHT22;18679;45.190;5.722;2022-08-26T03:23:33;28.40;42.00
32173;DHT22;18679;45.190;5.722;2022-08-26T03:26:34;28.40;42.20
32173;DHT22;18679;45.190;5.722;2022-08-26T03:29:35;28.40;42.20
32173;DHT22;18679;45.190;5.722;2022-08-26T03:32:55;28.40;43.10
32173;DHT22;18679;45.190;5.722;2022-08-26T03:35:57;28.40;42.60
32173;DHT22;18679;45.190;5.722;2022-08-26T03:38:58;28.30;42.70
32173;DHT22;18679;45.190;5.722;2022-08-26T03:41:59;28.30;42.80
32173;DHT22;18679;45.190;5.722;2022-08-26T03:45:01;28.20;43.00
32173;DHT22;18679;45.190;5.722;2022-08-26T03:48:02;28.20;43.20
32173;DHT22;18679;45.190;5.722;2022-08-26T03:51:10;28.20;43.30
32173;DHT22;18679;45.190;5.722;2022-08-26T03:54:11;28.10;43.30
32173;DHT22;18679;45.190;5.722;2022-08-26T03:57:12;28.10;43.50
32173;DHT22;18679;45.190;5.722;2022-08-26T04:00:15;28.10;43.60
32173;DHT22;18679;45.190;5.722;2022-08-26T04:03:17;28.10;43.70
32173;DHT22;18679;45.190;5.722;2022-08-26T04:06:40;28.00;43.80
32173;DHT22;18679;45.190;5.722;2022-08-26T04:09:44;27.90;43.90
32173;DHT22;18679;45.190;5.722;2022-08-26T04:12:45;27.90;44.00
32173;DHT22;18679;45.190;5.722;2022-08-26T04:15:47;27.90;44.10
32173;DHT22;18679;45.190;5.722;2022-08-26T04:18:48;27.80;44.10
32173;DHT22;18679;45.190;5.722;2022-08-26T04:21:50;27.80;44.10
32173;DHT22;18679;45.190;5.722;2022-08-26T04:24:55;27.80;44.30
32173;DHT22;18679;45.190;5.722;2022-08-26T04:27:56;27.80;44.40
32173;DHT22;18679;45.190;5.722;2022-08-26T04:30:58;27.70;44.40
32173;DHT22;18679;45.190;5.722;2022-08-26T04:33:59;27.70;44.50
32173;DHT22;18679;45.190;5.722;2022-08-26T04:37:00;27.70;45.40
32173;DHT22;18679;45.190;5.722;2022-08-26T04:40:02;27.60;44.80
32173;DHT22;18679;45.190;5.722;2022-08-26T04:43:03;27.60;44.80
32173;DHT22;18679;45.190;5.722;2022-08-26T04:46:05;27.60;44.80
32173;DHT22;18679;45.190;5.722;2022-08-26T04:49:07;27.60;44.80
32173;DHT22;18679;45.190;5.722;2022-08-26T04:52:08;27.60;44.90
32173;DHT22;18679;45.190;5.722;2022-08-26T04:55:10;27.60;44.90
32173;DHT22;18679;45.190;5.722;2022-08-26T04:58:14;27.60;45.00
32173;DHT22;18679;45.190;5.722;2022-08-26T05:01:15;27.60;45.20
32173;DHT22;18679;45.190;5.722;2022-08-26T05:04:18;27.50;45.20
32173;DHT22;18679;45.190;5.722;2022-08-26T05:07:19;27.60;45.30
32173;DHT22;18679;45.190;5.722;2022-08-26T05:10:21;27.50;45.30
32173;DHT22;18679;45.190;5.722;2022-08-26T05:13:24;27.50;45.40
32173;DHT22;18679;45.190;5.722;2022-08-26T05:16:26;27.60;45.40
32173;DHT22;18679;45.190;5.722;2022-08-26T05:19:27;27.60;45.40
32173;DHT22;18679;45.190;5.722;2022-08-26T05:22:28;27.60;45.50
32173;DHT22;18679;45.190;5.722;2022-08-26T05:25:30;27.60;45.50
32173;DHT22;18679;45.190;5.722;2022-08-26T05:28:31;27.50;45.40
32173;DHT22;18679;45.190;5.722;2022-08-26T05:31:33;27.60;45.50
32173;DHT22;18679;45.190;5.722;2022-08-26T05:34:35;27.50;45.50
32173;DHT22;18679;45.190;5.722;2022-08-26T05:37:37;27.50;45.60
32173;DHT22;18679;45.190;5.722;2022-08-26T05:40:41;27.50;45.70
32173;DHT22;18679;45.190;5.722;2022-08-26T05:43:42;27.50;45.90
32173;DHT22;18679;45.190;5.722;2022-08-26T05:46:44;27.40;45.80
32173;DHT22;18679;45.190;5.722;2022-08-26T05:49:45;27.40;45.90
32173;DHT22;18679;45.190;5.722;2022-08-26T05:52:48;27.40;45.80
32173;DHT22;18679;45.190;5.722;2022-08-26T05:55:51;27.50;46.00
32173;DHT22;18679;45.190;5.722;2022-08-26T05:58:53;27.50;46.00
32173;DHT22;18679;45.190;5.722;2022-08-26T06:01:55;27.50;46.10
32173;DHT22;18679;45.190;5.722;2022-08-26T06:04:56;27.60;46.00
32173;DHT22;18679;45.190;5.722;2022-08-26T06:07:58;27.60;46.00
32173;DHT22;18679;45.190;5.722;2022-08-26T06:11:13;27.70;45.90
32173;DHT22;18679;45.190;5.722;2022-08-26T06:14:15;27.70;45.90
32173;DHT22;18679;45.190;5.722;2022-08-26T06:17:17;27.80;45.80
32173;DHT22;18679;45.190;5.722;2022-08-26T06:20:18;27.80;45.80
32173;DHT22;18679;45.190;5.722;2022-08-26T06:23:20;27.80;45.70
32173;DHT22;18679;45.190;5.722;2022-08-26T06:26:41;27.80;45.80
32173;DHT22;18679;45.190;5.722;2022-08-26T06:29:42;27.90;45.80
32173;DHT22;18679;45.190;5.722;2022-08-26T06:32:43;27.90;45.80
32173;DHT22;18679;45.190;5.722;2022-08-26T06:35:45;27.90;45.90
32173;DHT22;18679;45.190;5.722;2022-08-26T06:38:48;27.80;46.00
32173;DHT22;18679;45.190;5.722;2022-08-26T06:41:50;27.80;46.10
32173;DHT22;18679;45.190;5.722;2022-08-26T06:44:51;27.70;46.20
32173;DHT22;18679;45.190;5.722;2022-08-26T06:47:52;27.70;46.30
32173;DHT22;18679;45.190;5.722;2022-08-26T06:51:10;27.70;46.40
32173;DHT22;18679;45.190;5.722;2022-08-26T06:54:12;27.80;46.40
32173;DHT22;18679;45.190;5.722;2022-08-26T06:57:13;27.80;46.20
32173;DHT22;18679;45.190;5.722;2022-08-26T07:00:15;27.90;46.30
32173;DHT22;18679;45.190;5.722;2022-08-26T07:03:17;27.90;46.20
32173;DHT22;18679;45.190;5.722;2022-08-26T07:06:18;28.00;46.20
32173;DHT22;18679;45.190;5.722;2022-08-26T07:09:21;27.90;46.10
32173;DHT22;18679;45.190;5.722;2022-08-26T07:12:22;28.00;46.10
32173;DHT22;18679;45.190;5.722;2022-08-26T07:15:26;28.00;46.00
32173;DHT22;18679;45.190;5.722;2022-08-26T07:18:32;28.10;46.10
32173;DHT22;18679;45.190;5.722;2022-08-26T07:21:35;28.10;46.00
32173;DHT22;18679;45.190;5.722;2022-08-26T07:24:37;28.10;45.90
32173;DHT22;18679;45.190;5.722;2022-08-26T07:27:41;28.20;45.90
32173;DHT22;18679;45.190;5.722;2022-08-26T07:30:42;28.30;45.80
32173;DHT22;18679;45.190;5.722;2022-08-26T07:33:44;28.30;45.60
32173;DHT22;18679;45.190;5.722;2022-08-26T07:36:45;28.50;45.50
32173;DHT22;18679;45.190;5.722;2022-08-26T07:39:46;28.70;45.20
32173;DHT22;18679;45.190;5.722;2022-08-26T07:42:47;28.80;45.00
32173;DHT22;18679;45.190;5.722;2022-08-26T07:45:48;28.90;44.90
32173;DHT22;18679;45.190;5.722;2022-08-26T07:48:50;28.90;44.80
32173;DHT22;18679;45.190;5.722;2022-08-26T07:51:52;28.90;44.80
32173;DHT22;18679;45.190;5.722;2022-08-26T07:54:56;28.90;44.90
32173;DHT22;18679;45.190;5.722;2022-08-26T07:57:57;28.70;44.90
32173;DHT22;18679;45.190;5.722;2022-08-26T08:00:59;28.70;45.10
32173;DHT22;18679;45.190;5.722;2022-08-26T08:04:00;28.60;45.30
32173;DHT22;18679;45.190;5.722;2022-08-26T08:07:01;28.50;45.40
32173;DHT22;18679;45.190;5.722;2022-08-26T08:10:03;28.50;45.50
32173;DHT22;18679;45.190;5.722;2022-08-26T08:13:05;28.50;45.50
32173;DHT22;18679;45.190;5.722;2022-08-26T08:16:07;28.50;45.50
32173;DHT22;18679;45.190;5.722;2022-08-26T08:19:08;28.60;45.50
32173;DHT22;18679;45.190;5.722;2022-08-26T08:22:10;28.60;45.60
32173;DHT22;18679;45.190;5.722;2022-08-26T08:25:12;28.70;45.60
32173;DHT22;18679;45.190;5.722;2022-08-26T08:28:14;28.80;45.40
32173;DHT22;18679;45.190;5.722;2022-08-26T08:31:24;28.90;45.20
32173;DHT22;18679;45.190;5.722;2022-08-26T08:34:27;29.10;44.90
32173;DHT22;18679;45.190;5.722;2022-08-26T08:37:29;29.40;44.60
32173;DHT22;18679;45.190;5.722;2022-08-26T08:40:30;29.60;44.10
32173;DHT22;18679;45.190;5.722;2022-08-26T08:43:39;29.90;43.70
32173;DHT22;18679;45.190;5.722;2022-08-26T08:46:42;30.00;43.30
32173;DHT22;18679;45.190;5.722;2022-08-26T08:49:44;30.20;43.10
32173;DHT22;18679;45.190;5.722;2022-08-26T08:52:54;30.30;42.80
32173;DHT22;18679;45.190;5.722;2022-08-26T08:56:09;30.30;42.70
32173;DHT22;18679;45.190;5.722;2022-08-26T08:59:21;30.30;42.60
32173;DHT22;18679;45.190;5.722;2022-08-26T09:05:36;30.50;42.40
32173;DHT22;18679;45.190;5.722;2022-08-26T09:08:48;30.60;42.20
32173;DHT22;18679;45.190;5.722;2022-08-26T09:11:49;30.60;41.90
32173;DHT22;18679;45.190;5.722;2022-08-26T09:14:52;30.70;41.90
32173;DHT22;18679;45.190;5.722;2022-08-26T09:18:10;30.80;41.70
32173;DHT22;18679;45.190;5.722;2022-08-26T09:21:17;31.00;41.40
32173;DHT22;18679;45.190;5.722;2022-08-26T09:24:18;31.20;41.10
32173;DHT22;18679;45.190;5.722;2022-08-26T09:27:48;31.40;40.90
32173;DHT22;18679;45.190;5.722;2022-08-26T09:34:19;31.60;40.60
32173;DHT22;18679;45.190;5.722;2022-08-26T09:37:42;31.70;40.10
32173;DHT22;18679;45.190;5.722;2022-08-26T09:41:00;31.80;40.00
32173;DHT22;18679;45.190;5.722;2022-08-26T09:44:14;31.80;40.00
32173;DHT22;18679;45.190;5.722;2022-08-26T09:47:24;31.70;40.20
32173;DHT22;18679;45.190;5.722;2022-08-26T09:50:27;31.60;40.90
32173;DHT22;18679;45.190;5.722;2022-08-26T09:53:33;31.60;40.20
32173;DHT22;18679;45.190;5.722;2022-08-26T09:56:37;31.60;40.20
32173;DHT22;18679;45.190;5.722;2022-08-26T09:59:38;31.60;40.20
32173;DHT22;18679;45.190;5.722;2022-08-26T10:02:41;31.50;40.80
32173;DHT22;18679;45.190;5.722;2022-08-26T10:05:53;31.50;40.20
32173;DHT22;18679;45.190;5.722;2022-08-26T10:08:58;31.50;40.30
32173;DHT22;18679;45.190;5.722;2022-08-26T10:12:14;31.50;40.20
32173;DHT22;18679;45.190;5.722;2022-08-26T10:15:18;31.50;40.10
32173;DHT22;18679;45.190;5.722;2022-08-26T10:18:34;31.50;39.90
32173;DHT22;18679;45.190;5.722;2022-08-26T10:23:02;31.40;40.10
32173;DHT22;18679;45.190;5.722;2022-08-26T10:25:51;31.50;40.20
32173;DHT22;18679;45.190;5.722;2022-08-26T10:29:06;31.70;39.90
32173;DHT22;18679;45.190;5.722;2022-08-26T10:32:15;31.80;39.70
32173;DHT22;18679;45.190;5.722;2022-08-26T10:35:21;31.90;39.60
32173;DHT22;18679;45.190;5.722;2022-08-26T10:38:37;32.00;39.50
32173;DHT22;18679;45.190;5.722;2022-08-26T10:41:42;32.00;39.20
32173;DHT22;18679;45.190;5.722;2022-08-26T10:44:44;32.00;39.10
32173;DHT22;18679;45.190;5.722;2022-08-26T10:47:53;32.10;39.00
32173;DHT22;18679;45.190;5.722;2022-08-26T10:50:56;32.30;38.60
32173;DHT22;18679;45.190;5.722;2022-08-26T10:54:01;32.40;38.50
32173;DHT22;18679;45.190;5.722;2022-08-26T10:57:22;32.40;38.50
32173;DHT22;18679;45.190;5.722;2022-08-26T11:00:35;32.60;38.20
32173;DHT22;18679;45.190;5.722;2022-08-26T11:07:27;33.20;37.20
32173;DHT22;18679;45.190;5.722;2022-08-26T11:14:02;33.60;36.50
32173;DHT22;18679;45.190;5.722;2022-08-26T11:17:08;33.60;36.50
32173;DHT22;18679;45.190;5.722;2022-08-26T11:23:44;33.50;36.40
32173;DHT22;18679;45.190;5.722;2022-08-26T11:26:45;33.40;36.50
32173;DHT22;18679;45.190;5.722;2022-08-26T11:30:06;33.20;36.70
32173;DHT22;18679;45.190;5.722;2022-08-26T11:33:08;33.00;36.90
32173;DHT22;18679;45.190;5.722;2022-08-26T11:36:10;32.90;37.10
32173;DHT22;18679;45.190;5.722;2022-08-26T11:39:31;32.90;36.90
32173;DHT22;18679;45.190;5.722;2022-08-26T11:42:41;32.90;36.70
32173;DHT22;18679;45.190;5.722;2022-08-26T11:45:50;32.70;36.70
32173;DHT22;18679;45.190;5.722;2022-08-26T11:49:03;32.50;36.70
32173;DHT22;18679;45.190;5.722;2022-08-26T11:52:20;32.30;36.60
32173;DHT22;18679;45.190;5.722;2022-08-26T11:55:22;32.10;36.60
32173;DHT22;18679;45.190;5.722;2022-08-26T11:58:25;32.00;36.70
32173;DHT22;18679;45.190;5.722;2022-08-26T12:01:32;32.00;36.70
32173;DHT22;18679;45.190;5.722;2022-08-26T12:04:39;32.10;36.60
32173;DHT22;18679;45.190;5.722;2022-08-26T12:07:42;32.40;36.20
32173;DHT22;18679;45.190;5.722;2022-08-26T12:10:48;32.90;35.30
32173;DHT22;18679;45.190;5.722;2022-08-26T12:13:58;33.60;34.50
32173;DHT22;18679;45.190;5.722;2022-08-26T12:17:11;34.10;33.40
32173;DHT22;18679;45.190;5.722;2022-08-26T12:20:37;34.50;33.40
32173;DHT22;18679;45.190;5.722;2022-08-26T12:24:07;34.90;32.30
32173;DHT22;18679;45.190;5.722;2022-08-26T12:27:24;35.50;31.20
32173;DHT22;18679;45.190;5.722;2022-08-26T12:30:26;35.90;30.60
32173;DHT22;18679;45.190;5.722;2022-08-26T12:33:27;36.30;30.00
32173;DHT22;18679;45.190;5.722;2022-08-26T12:36:37;36.80;29.50
32173;DHT22;18679;45.190;5.722;2022-08-26T12:39:41;37.20;29.30
32173;DHT22;18679;45.190;5.722;2022-08-26T12:42:42;37.40;28.90
32173;DHT22;18679;45.190;5.722;2022-08-26T12:45:55;37.30;28.90
32173;DHT22;18679;45.190;5.722;2022-08-26T12:48:57;37.10;29.10
32173;DHT22;18679;45.190;5.722;2022-08-26T12:52:03;36.60;29.60
32173;DHT22;18679;45.190;5.722;2022-08-26T12:55:18;36.10;30.00
32173;DHT22;18679;45.190;5.722;2022-08-26T12:58:24;35.90;30.30
32173;DHT22;18679;45.190;5.722;2022-08-26T13:01:25;35.90;30.20
32173;DHT22;18679;45.190;5.722;2022-08-26T13:04:40;36.10;30.10
32173;DHT22;18679;45.190;5.722;2022-08-26T13:07:42;37.00;29.40
32173;DHT22;18679;45.190;5.722;2022-08-26T13:10:46;37.40;28.90
32173;DHT22;18679;45.190;5.722;2022-08-26T13:13:50;37.60;28.70
32173;DHT22;18679;45.190;5.722;2022-08-26T13:16:52;37.30;28.80
32173;DHT22;18679;45.190;5.722;2022-08-26T13:19:54;37.10;29.10
32173;DHT22;18679;45.190;5.722;2022-08-26T13:22:55;38.00;28.40
32173;DHT22;18679;45.190;5.722;2022-08-26T13:25:59;38.80;27.50
32173;DHT22;18679;45.190;5.722;2022-08-26T13:29:01;38.90;27.30
32173;DHT22;18679;45.190;5.722;2022-08-26T13:32:05;39.30;26.90
32173;DHT22;18679;45.190;5.722;2022-08-26T13:35:06;40.00;26.60
32173;DHT22;18679;45.190;5.722;2022-08-26T13:38:08;40.60;26.00
32173;DHT22;18679;45.190;5.722;2022-08-26T13:41:14;40.50;26.00
32173;DHT22;18679;45.190;5.722;2022-08-26T13:44:17;39.90;26.60
32173;DHT22;18679;45.190;5.722;2022-08-26T13:47:19;39.80;26.80
32173;DHT22;18679;45.190;5.722;2022-08-26T13:50:20;40.00;26.70
32173;DHT22;18679;45.190;5.722;2022-08-26T13:53:21;40.00;26.60
32173;DHT22;18679;45.190;5.722;2022-08-26T13:56:26;39.80;26.60
32173;DHT22;18679;45.190;5.722;2022-08-26T13:59:30;39.80;26.50
32173;DHT22;18679;45.190;5.722;2022-08-26T14:02:33;40.00;26.40
32173;DHT22;18679;45.190;5.722;2022-08-26T14:05:34;40.10;26.30
32173;DHT22;18679;45.190;5.722;2022-08-26T14:08:35;39.80;26.50
32173;DHT22;18679;45.190;5.722;2022-08-26T14:11:37;39.60;26.90
32173;DHT22;18679;45.190;5.722;2022-08-26T14:14:38;40.00;26.50
32173;DHT22;18679;45.190;5.722;2022-08-26T14:17:40;40.00;26.50
32173;DHT22;18679;45.190;5.722;2022-08-26T14:20:47;39.50;26.80
32173;DHT22;18679;45.190;5.722;2022-08-26T14:23:48;38.80;27.30
32173;DHT22;18679;45.190;5.722;2022-08-26T14:26:50;38.40;27.90
32173;DHT22;18679;45.190;5.722;2022-08-26T14:29:51;38.10;28.30
32173;DHT22;18679;45.190;5.722;2022-08-26T14:32:55;37.40;28.80
32173;DHT22;18679;45.190;5.722;2022-08-26T14:35:57;36.70;29.50
32173;DHT22;18679;45.190;5.722;2022-08-26T14:39:18;36.10;30.10
32173;DHT22;18679;45.190;5.722;2022-08-26T14:42:22;35.70;30.80
32173;DHT22;18679;45.190;5.722;2022-08-26T14:45:26;35.20;31.20
32173;DHT22;18679;45.190;5.722;2022-08-26T14:48:27;34.90;31.70
32173;DHT22;18679;45.190;5.722;2022-08-26T14:51:29;34.70;32.00
32173;DHT22;18679;45.190;5.722;2022-08-26T14:54:30;34.50;32.20
32173;DHT22;18679;45.190;5.722;2022-08-26T14:57:44;34.50;32.60
32173;DHT22;18679;45.190;5.722;2022-08-26T15:00:54;34.30;32.90
32173;DHT22;18679;45.190;5.722;2022-08-26T15:04:00;34.10;33.00
32173;DHT22;18679;45.190;5.722;2022-08-26T15:07:02;34.00;33.40
32173;DHT22;18679;45.190;5.722;2022-08-26T15:10:06;33.80;33.60
32173;DHT22;18679;45.190;5.722;2022-08-26T15:13:08;33.80;33.80
32173;DHT22;18679;45.190;5.722;2022-08-26T15:16:09;33.70;34.10
32173;DHT22;18679;45.190;5.722;2022-08-26T15:19:10;33.70;34.40
32173;DHT22;18679;45.190;5.722;2022-08-26T15:22:11;33.40;34.60
32173;DHT22;18679;45.190;5.722;2022-08-26T15:25:13;33.20;34.90
32173;DHT22;18679;45.190;5.722;2022-08-26T15:28:14;33.10;35.30
32173;DHT22;18679;45.190;5.722;2022-08-26T15:31:17;33.00;35.50
32173;DHT22;18679;45.190;5.722;2022-08-26T15:34:19;32.80;35.70
32173;DHT22;18679;45.190;5.722;2022-08-26T15:37:21;32.80;35.90
32173;DHT22;18679;45.190;5.722;2022-08-26T15:40:24;32.80;36.10
32173;DHT22;18679;45.190;5.722;2022-08-26T15:43:26;32.80;36.20
32173;DHT22;18679;45.190;5.722;2022-08-26T15:46:28;32.80;36.10
32173;DHT22;18679;45.190;5.722;2022-08-26T15:49:29;32.90;36.10
32173;DHT22;18679;45.190;5.722;2022-08-26T15:52:31;32.90;36.10
32173;DHT22;18679;45.190;5.722;2022-08-26T15:55:33;32.80;36.00
32173;DHT22;18679;45.190;5.722;2022-08-26T15:58:35;32.80;36.00
32173;DHT22;18679;45.190;5.722;2022-08-26T16:01:37;33.30;35.70
32173;DHT22;18679;45.190;5.722;2022-08-26T16:04:39;34.20;34.40
32173;DHT22;18679;45.190;5.722;2022-08-26T16:07:40;35.50;32.50
32173;DHT22;18679;45.190;5.722;2022-08-26T16:10:44;36.50;30.70
32173;DHT22;18679;45.190;5.722;2022-08-26T16:13:46;36.60;30.10
32173;DHT22;18679;45.190;5.722;2022-08-26T16:16:47;35.80;31.00
32173;DHT22;18679;45.190;5.722;2022-08-26T16:19:49;35.20;32.10
32173;DHT22;18679;45.190;5.722;2022-08-26T16:22:50;35.60;31.80
32173;DHT22;18679;45.190;5.722;2022-08-26T16:25:52;36.50;30.80
32173;DHT22;18679;45.190;5.722;2022-08-26T16:28:53;37.30;29.70
32173;DHT22;18679;45.190;5.722;2022-08-26T16:31:54;37.10;29.60
32173;DHT22;18679;45.190;5.722;2022-08-26T16:34:56;36.30;30.30
32173;DHT22;18679;45.190;5.722;2022-08-26T16:37:57;35.60;32.20
32173;DHT22;18679;45.190;5.722;2022-08-26T16:40:59;34.90;32.60
32173;DHT22;18679;45.190;5.722;2022-08-26T16:44:01;34.30;33.40
32173;DHT22;18679;45.190;5.722;2022-08-26T16:47:02;33.80;34.10
32173;DHT22;18679;45.190;5.722;2022-08-26T16:50:04;33.40;34.80
32173;DHT22;18679;45.190;5.722;2022-08-26T16:53:06;33.10;35.40
32173;DHT22;18679;45.190;5.722;2022-08-26T16:56:19;32.70;36.00
32173;DHT22;18679;45.190;5.722;2022-08-26T16:59:21;32.30;36.50
32173;DHT22;18679;45.190;5.722;2022-08-26T17:02:23;32.10;36.90
32173;DHT22;18679;45.190;5.722;2022-08-26T17:05:25;31.90;37.40
32173;DHT22;18679;45.190;5.722;2022-08-26T17:08:27;31.90;37.70
32173;DHT22;18679;45.190;5.722;2022-08-26T17:11:28;31.70;37.80
32173;DHT22;18679;45.190;5.722;2022-08-26T17:14:29;31.60;38.00
32173;DHT22;18679;45.190;5.722;2022-08-26T17:17:31;31.60;38.10
32173;DHT22;18679;45.190;5.722;2022-08-26T17:20:32;31.50;38.30
32173;DHT22;18679;45.190;5.722;2022-08-26T17:23:34;31.30;38.30
32173;DHT22;18679;45.190;5.722;2022-08-26T17:26:35;31.20;38.50
32173;DHT22;18679;45.190;5.722;2022-08-26T17:29:37;31.10;38.50
32173;DHT22;18679;45.190;5.722;2022-08-26T17:32:40;31.10;38.60
32173;DHT22;18679;45.190;5.722;2022-08-26T17:35:42;31.00;38.70
32173;DHT22;18679;45.190;5.722;2022-08-26T17:38:43;30.90;38.70
32173;DHT22;18679;45.190;5.722;2022-08-26T17:41:44;30.90;38.80
32173;DHT22;18679;45.190;5.722;2022-08-26T17:44:45;30.80;38.90
32173;DHT22;18679;45.190;5.722;2022-08-26T17:47:48;30.70;39.00
32173;DHT22;18679;45.190;5.722;2022-08-26T17:50:50;30.60;39.20
32173;DHT22;18679;45.190;5.722;2022-08-26T17:53:51;30.50;39.30
32173;DHT22;18679;45.190;5.722;2022-08-26T17:56:52;30.50;39.30
32173;DHT22;18679;45.190;5.722;2022-08-26T17:59:54;30.40;39.40
32173;DHT22;18679;45.190;5.722;2022-08-26T18:02:55;30.40;39.40
32173;DHT22;18679;45.190;5.722;2022-08-26T18:05:56;30.30;39.30
32173;DHT22;18679;45.190;5.722;2022-08-26T18:08:59;30.30;39.20
32173;DHT22;18679;45.190;5.722;2022-08-26T18:12:00;30.20;38.80
32173;DHT22;18679;45.190;5.722;2022-08-26T18:15:02;30.20;38.70
32173;DHT22;18679;45.190;5.722;2022-08-26T18:18:03;30.10;38.50
32173;DHT22;18679;45.190;5.722;2022-08-26T18:21:19;30.10;38.40
32173;DHT22;18679;45.190;5.722;2022-08-26T18:24:20;30.00;38.50
32173;DHT22;18679;45.190;5.722;2022-08-26T18:27:22;30.00;38.40
32173;DHT22;18679;45.190;5.722;2022-08-26T18:30:24;30.00;38.50
32173;DHT22;18679;45.190;5.722;2022-08-26T18:33:25;29.90;38.50
32173;DHT22;18679;45.190;5.722;2022-08-26T18:36:29;29.90;38.60
32173;DHT22;18679;45.190;5.722;2022-08-26T18:39:31;29.80;38.60
32173;DHT22;18679;45.190;5.722;2022-08-26T18:42:32;29.80;38.70
32173;DHT22;18679;45.190;5.722;2022-08-26T18:45:34;29.70;38.80
32173;DHT22;18679;45.190;5.722;2022-08-26T18:48:36;29.60;38.90
32173;DHT22;18679;45.190;5.722;2022-08-26T18:51:40;29.60;39.00
32173;DHT22;18679;45.190;5.722;2022-08-26T18:54:42;29.60;39.10
32173;DHT22;18679;45.190;5.722;2022-08-26T18:57:43;29.50;39.10
32173;DHT22;18679;45.190;5.722;2022-08-26T19:00:44;29.40;39.20
32173;DHT22;18679;45.190;5.722;2022-08-26T19:03:46;29.40;39.30
32173;DHT22;18679;45.190;5.722;2022-08-26T19:06:48;29.30;39.40
32173;DHT22;18679;45.190;5.722;2022-08-26T19:09:53;29.30;39.60
32173;DHT22;18679;45.190;5.722;2022-08-26T19:12:54;29.30;39.80
32173;DHT22;18679;45.190;5.722;2022-08-26T19:15:55;29.20;39.90
32173;DHT22;18679;45.190;5.722;2022-08-26T19:18:57;29.20;40.00
32173;DHT22;18679;45.190;5.722;2022-08-26T19:21:58;29.10;40.10
32173;DHT22;18679;45.190;5.722;2022-08-26T19:25:00;29.10;40.20
32173;DHT22;18679;45.190;5.722;2022-08-26T19:28:01;29.10;40.30
32173;DHT22;18679;45.190;5.722;2022-08-26T19:31:02;29.10;40.30
32173;DHT22;18679;45.190;5.722;2022-08-26T19:34:04;29.10;40.40
32173;DHT22;18679;45.190;5.722;2022-08-26T19:37:06;29.00;40.50
32173;DHT22;18679;45.190;5.722;2022-08-26T19:40:07;29.00;40.60
32173;DHT22;18679;45.190;5.722;2022-08-26T19:43:10;29.00;40.70